Time;durP1;ratioP1;P1;durP2;ratioP2;P2;SDS_P1;SDS_P2;PMS_P1;PMS_P2;Temp;Humidity;BMP_temperature;BMP_pressure;BME280_temperature;BME280_humidity;BME280_pressure;Samples;Min_cycle;Max_cycle;Signal;HPM_P1;HPM_P2
2023/11/24 00:02:07;;;;;;;3.92;0.90;;;20.90;44.20;;;;;;5029625;28;20128;-56
2023/11/24 00:04:35;;;;;;;2.00;0.90;;;20.90;44.00;;;;;;5027913;28;20064;-59
2023/11/24 00:07:03;;;;;;;2.83;1.20;;;20.90;43.90;;;;;;5028505;28;20057;-59
2023/11/24 00:09:30;;;;;;;2.13;0.80;;;20.90;43.80;;;;;;5028880;28;20333;-55
2023/11/24 00:11:58;;;;;;;1.70;0.60;;;20.90;43.80;;;;;;5028045;28;20437;-63
2023/11/24 00:14:24;;;;;;;1.40;0.50;;;20.90;43.70;;;;;;5028742;28;20441;-62
2023/11/24 00:16:50;;;;;;;1.58;0.60;;;20.90;43.60;;;;;;5029468;28;20040;-60
2023/11/24 00:19:16;;;;;;;2.10;0.60;;;20.90;43.50;;;;;;5030616;28;20091;-62
2023/11/24 00:21:42;;;;;;;1.38;0.50;;;20.90;43.40;;;;;;5028773;28;20040;-63
2023/11/24 00:24:09;;;;;;;1.33;0.60;;;20.90;43.30;;;;;;5027594;28;20025;-64
2023/11/24 00:26:35;;;;;;;1.60;0.40;;;20.90;43.30;;;;;;5029731;28;20029;-59
2023/11/24 00:29:02;;;;;;;1.48;0.63;;;20.90;43.20;;;;;;5012819;28;20116;-62
2023/11/24 00:31:28;;;;;;;2.10;0.50;;;20.90;43.20;;;;;;5029464;28;20040;-59
2023/11/24 00:33:55;;;;;;;2.10;0.70;;;20.90;43.10;;;;;;5011896;28;20460;-59
2023/11/24 00:36:22;;;;;;;2.08;0.75;;;20.90;43.00;;;;;;5012522;28;20026;-60
2023/11/24 00:38:51;;;;;;;1.83;0.57;;;20.90;42.90;;;;;;5029038;28;20045;-57
2023/11/24 00:41:17;;;;;;;1.75;0.80;;;20.90;42.80;;;;;;5049268;28;20017;-60
2023/11/24 00:43:47;;;;;;;1.05;0.50;;;20.90;42.80;;;;;;5032130;28;20120;-62
2023/11/24 00:46:14;;;;;;;1.77;0.50;;;20.90;42.70;;;;;;5033452;28;20021;-56
2023/11/24 00:48:40;;;;;;;1.70;0.85;;;20.90;42.70;;;;;;5011824;28;20519;-59
2023/11/24 00:51:07;;;;;;;1.20;0.55;;;20.80;42.50;;;;;;5050166;28;20294;-63
2023/11/24 00:53:33;;;;;;;1.88;0.63;;;20.90;42.50;;;;;;5030678;28;20048;-61
2023/11/24 00:55:59;;;;;;;1.40;0.68;;;20.90;42.50;;;;;;5049468;28;20021;-58
2023/11/24 00:58:25;;;;;;;1.80;0.70;;;20.90;42.40;;;;;;5030971;28;20045;-57
2023/11/24 01:00:53;;;;;;;3.28;0.73;;;20.90;42.40;;;;;;5046034;28;20040;-57
2023/11/24 01:03:23;;;;;;;1.25;0.43;;;20.90;42.40;;;;;;5011500;28;20375;-60
2023/11/24 01:05:52;;;;;;;2.53;0.60;;;20.90;42.30;;;;;;5013717;28;20032;-58
2023/11/24 01:08:18;;;;;;;1.73;0.70;;;20.90;42.90;;;;;;5046555;28;20029;-61
2023/11/24 01:10:45;;;;;;;2.20;0.65;;;20.90;42.20;;;;;;5029041;28;20024;-61
2023/11/24 01:13:11;;;;;;;2.47;0.70;;;20.90;42.20;;;;;;5029995;28;20043;-59
2023/11/24 01:15:37;;;;;;;1.55;0.73;;;20.90;42.20;;;;;;5049207;28;20025;-56
2023/11/24 01:18:03;;;;;;;2.38;0.73;;;20.90;42.20;;;;;;5049072;28;20021;-59
2023/11/24 01:20:29;;;;;;;1.83;0.88;;;20.90;42.20;;;;;;5046839;28;20032;-60
2023/11/24 01:22:56;;;;;;;1.55;0.60;;;20.90;42.10;;;;;;5050477;28;20025;-62
2023/11/24 01:25:22;;;;;;;1.08;0.50;;;20.90;42.10;;;;;;5032775;28;20470;-62
2023/11/24 01:27:48;;;;;;;1.10;0.50;;;20.90;42.10;;;;;;5052226;28;20025;-60
2023/11/24 01:30:15;;;;;;;2.10;0.73;;;20.90;42.10;;;;;;5052537;28;20029;-58
2023/11/24 01:32:41;;;;;;;1.95;0.75;;;20.90;42.10;;;;;;5031997;28;20124;-58
2023/11/24 01:35:09;;;;;;;2.17;0.60;;;20.80;42.00;;;;;;5050594;28;20115;-60
2023/11/24 01:37:35;;;;;;;2.13;0.70;;;20.80;42.00;;;;;;5037133;28;20064;-60
2023/11/24 01:40:03;;;;;;;2.05;0.75;;;20.90;42.00;;;;;;5021700;28;20120;-61
2023/11/24 01:42:29;;;;;;;1.63;0.55;;;20.90;42.00;;;;;;5048465;28;20044;-59
2023/11/24 01:44:55;;;;;;;1.65;0.70;;;20.80;41.90;;;;;;5039525;28;20025;-62
2023/11/24 01:47:21;;;;;;;1.98;0.70;;;20.80;41.90;;;;;;5042134;28;20444;-58
2023/11/24 01:49:49;;;;;;;2.05;0.60;;;20.80;41.80;;;;;;5050121;28;20025;-59
2023/11/24 01:52:15;;;;;;;2.03;0.77;;;20.80;41.80;;;;;;5051110;28;20044;-60
2023/11/24 01:54:42;;;;;;;2.63;0.80;;;20.80;41.80;;;;;;5040268;28;20039;-58
2023/11/24 01:57:11;;;;;;;1.75;0.47;;;20.80;41.70;;;;;;5042083;28;20067;-61
2023/11/24 01:59:38;;;;;;;1.70;0.52;;;20.90;41.70;;;;;;5038846;28;20372;-58
2023/11/24 02:02:04;;;;;;;1.33;0.30;;;20.80;41.70;;;;;;5038645;28;20047;-58
2023/11/24 02:04:30;;;;;;;3.85;0.85;;;20.80;41.70;;;;;;5043082;28;20032;-57
2023/11/24 02:06:57;;;;;;;2.05;0.85;;;20.80;41.60;;;;;;5041220;28;20063;-58
2023/11/24 02:09:25;;;;;;;1.65;0.70;;;20.80;41.60;;;;;;5051581;28;20036;-63
2023/11/24 02:11:51;;;;;;;1.33;0.60;;;20.80;41.50;;;;;;5049347;28;20029;-60
2023/11/24 02:14:17;;;;;;;1.65;0.57;;;20.80;41.50;;;;;;5040418;28;20039;-60
2023/11/24 02:16:43;;;;;;;1.90;0.70;;;20.80;41.50;;;;;;5039083;28;20028;-57
2023/11/24 02:19:09;;;;;;;1.83;0.70;;;20.80;41.40;;;;;;5038896;28;20499;-59
2023/11/24 02:21:35;;;;;;;2.20;0.80;;;20.80;41.40;;;;;;5040733;28;20032;-57
2023/11/24 02:24:00;;;;;;;1.90;0.70;;;20.80;41.40;;;;;;5041109;28;20397;-60
2023/11/24 02:26:26;;;;;;;1.55;0.77;;;20.80;41.30;;;;;;5049261;28;20033;-58
2023/11/24 02:28:52;;;;;;;2.63;1.00;;;20.80;41.30;;;;;;5043655;28;20052;-55
2023/11/24 02:31:19;;;;;;;2.63;0.70;;;20.80;41.20;;;;;;5047261;28;20029;-56
2023/11/24 02:33:48;;;;;;;2.10;0.70;;;20.80;41.20;;;;;;5040987;28;20021;-60
2023/11/24 02:36:20;;;;;;;1.90;0.60;;;20.80;41.10;;;;;;5040088;28;20037;-59
2023/11/24 02:38:49;;;;;;;3.00;0.90;;;20.80;41.10;;;;;;5031349;28;20057;-58
2023/11/24 02:41:20;;;;;;;2.38;0.80;;;20.70;41.00;;;;;;5012525;28;20112;-61
2023/11/24 02:43:46;;;;;;;2.17;0.82;;;20.80;41.10;;;;;;5010331;28;20116;-61
2023/11/24 02:46:13;;;;;;;2.53;1.10;;;20.80;41.00;;;;;;5014617;28;20117;-60
2023/11/24 02:48:43;;;;;;;1.60;0.60;;;20.70;40.90;;;;;;5011989;28;20353;-59
2023/11/24 02:51:10;;;;;;;2.20;0.80;;;20.80;40.90;;;;;;5029750;28;20421;-55
2023/11/24 02:53:37;;;;;;;2.92;0.90;;;20.70;40.90;;;;;;5012807;28;20040;-58
2023/11/24 02:56:04;;;;;;;2.30;0.90;;;20.70;41.50;;;;;;5011773;28;20047;-59
2023/11/24 02:58:31;;;;;;;2.35;0.93;;;20.70;40.80;;;;;;5029227;28;20056;-60
2023/11/24 03:00:57;;;;;;;2.55;0.90;;;20.80;40.80;;;;;;5031413;28;20109;-56
2023/11/24 03:03:24;;;;;;;3.63;0.68;;;20.70;40.70;;;;;;5031301;28;20018;-60
2023/11/24 03:05:53;;;;;;;2.97;0.88;;;20.70;40.70;;;;;;5029375;28;20052;-61
2023/11/24 03:08:19;;;;;;;1.70;0.70;;;20.80;40.70;;;;;;5029132;28;20445;-59
2023/11/24 03:10:46;;;;;;;2.80;0.88;;;20.70;40.60;;;;;;5028817;28;20025;-60
2023/11/24 03:13:12;;;;;;;2.10;0.75;;;20.70;40.60;;;;;;5011437;28;20060;-59
2023/11/24 03:15:40;;;;;;;1.98;0.60;;;20.70;40.60;;;;;;5013781;28;20037;-58
2023/11/24 03:18:06;;;;;;;2.15;0.80;;;20.70;40.50;;;;;;5031097;28;20025;-58
2023/11/24 03:20:32;;;;;;;1.83;0.80;;;20.70;40.50;;;;;;5011466;28;20052;-57
2023/11/24 03:22:58;;;;;;;1.67;0.60;;;20.70;40.40;;;;;;5011395;28;20457;-61
2023/11/24 03:25:25;;;;;;;3.28;1.08;;;20.70;40.40;;;;;;5031013;28;20080;-56
2023/11/24 03:27:51;;;;;;;1.65;0.60;;;20.70;40.30;;;;;;5013881;28;20459;-60
2023/11/24 03:30:19;;;;;;;1.45;0.80;;;20.70;40.30;;;;;;5011858;28;20033;-62
2023/11/24 03:32:44;;;;;;;0.88;0.52;;;20.70;40.20;;;;;;5030806;28;20040;-63
2023/11/24 03:35:10;;;;;;;1.77;0.60;;;20.70;40.20;;;;;;5028539;28;20091;-59
2023/11/24 03:37:37;;;;;;;2.13;0.90;;;20.70;40.10;;;;;;5020718;28;20537;-61
2023/11/24 03:40:05;;;;;;;1.05;0.50;;;20.70;40.10;;;;;;5038608;28;20044;-59
2023/11/24 03:42:31;;;;;;;2.63;0.85;;;20.70;40.10;;;;;;5032027;28;20028;-59
2023/11/24 03:44:57;;;;;;;1.58;0.40;;;20.70;40.10;;;;;;5051273;28;20029;-62
2023/11/24 03:47:23;;;;;;;1.75;0.50;;;20.60;40.10;;;;;;5050091;28;20020;-58
2023/11/24 03:49:49;;;;;;;1.98;0.50;;;20.60;40.00;;;;;;5032552;28;20459;-54
2023/11/24 03:52:15;;;;;;;0.82;0.43;;;20.60;40.00;;;;;;5013755;28;20029;-56
2023/11/24 03:54:42;;;;;;;1.77;0.55;;;20.60;40.00;;;;;;5049952;28;20029;-61
2023/11/24 03:57:07;;;;;;;1.27;0.65;;;20.60;40.00;;;;;;5048993;28;20094;-58
2023/11/24 03:59:33;;;;;;;1.80;0.60;;;20.60;40.00;;;;;;5030806;28;20087;-58
2023/11/24 04:01:59;;;;;;;1.45;0.60;;;20.60;40.10;;;;;;5049405;28;20607;-59
2023/11/24 04:04:25;;;;;;;1.33;0.40;;;20.60;40.10;;;;;;5048495;28;20028;-59
2023/11/24 04:06:51;;;;;;;2.05;0.55;;;20.60;40.10;;;;;;5047371;28;20100;-60
2023/11/24 04:09:17;;;;;;;1.17;0.40;;;20.60;40.10;;;;;;5049255;28;20124;-61
2023/11/24 04:11:43;;;;;;;2.08;0.50;;;20.70;40.20;;;;;;5030126;28;20021;-59
2023/11/24 04:14:08;;;;;;;1.20;0.50;;;20.60;40.10;;;;;;5028786;28;20021;-58
2023/11/24 04:16:36;;;;;;;2.00;0.45;;;20.60;40.20;;;;;;5030603;28;20701;-60
2023/11/24 04:19:02;;;;;;;0.85;0.40;;;20.60;40.20;;;;;;5032255;28;20037;-59
2023/11/24 04:21:29;;;;;;;0.93;0.38;;;20.60;40.20;;;;;;5050069;28;20082;-62
2023/11/24 04:23:55;;;;;;;1.95;0.80;;;20.60;40.20;;;;;;5051633;28;20040;-61
2023/11/24 04:26:21;;;;;;;0.70;0.50;;;20.60;40.20;;;;;;5032782;28;20029;-56
2023/11/24 04:28:47;;;;;;;1.90;0.50;;;20.60;40.20;;;;;;5030765;28;20387;-61
2023/11/24 04:31:13;;;;;;;1.52;0.40;;;20.60;40.20;;;;;;5014734;28;20033;-62
2023/11/24 04:33:40;;;;;;;1.20;0.43;;;20.60;40.30;;;;;;5047632;28;20106;-57
2023/11/24 04:36:07;;;;;;;3.05;0.55;;;20.60;40.30;;;;;;5047608;28;20059;-60
2023/11/24 04:38:33;;;;;;;1.60;0.45;;;20.60;40.20;;;;;;5037887;28;20084;-56
2023/11/24 04:41:00;;;;;;;1.15;0.32;;;20.60;40.20;;;;;;5039183;28;20068;-60
2023/11/24 04:43:27;;;;;;;1.60;0.52;;;20.60;40.20;;;;;;5049293;28;20436;-58
2023/11/24 04:45:53;;;;;;;1.83;0.50;;;20.60;40.20;;;;;;5048493;28;20025;-63
2023/11/24 04:48:19;;;;;;;1.52;0.43;;;20.60;40.20;;;;;;5048201;28;20052;-61
2023/11/24 04:50:44;;;;;;;2.53;0.68;;;20.50;40.20;;;;;;5050178;28;20436;-58
2023/11/24 04:53:10;;;;;;;1.08;0.30;;;20.60;40.20;;;;;;5047737;28;20029;-60
2023/11/24 04:55:36;;;;;;;1.73;0.57;;;20.50;40.10;;;;;;5040646;28;20072;-61
2023/11/24 04:58:02;;;;;;;1.83;0.57;;;20.60;40.10;;;;;;5053505;28;20390;-58
2023/11/24 05:00:28;;;;;;;1.52;0.40;;;20.50;40.10;;;;;;5053934;28;20033;-61
2023/11/24 05:02:54;;;;;;;1.45;0.60;;;20.50;40.00;;;;;;5050841;28;20024;-58
2023/11/24 05:05:19;;;;;;;1.48;0.60;;;20.50;40.00;;;;;;5052930;28;20029;-58
2023/11/24 05:07:45;;;;;;;1.23;0.47;;;20.50;39.90;;;;;;5052467;28;20024;-61
2023/11/24 05:10:11;;;;;;;0.57;0.28;;;20.50;39.90;;;;;;5043905;28;20692;-62
2023/11/24 05:12:37;;;;;;;1.67;0.50;;;20.50;39.80;;;;;;5052635;28;20353;-59
2023/11/24 05:15:08;;;;;;;1.55;0.65;;;20.50;39.80;;;;;;5053428;28;20021;-58
2023/11/24 05:17:35;;;;;;;1.50;0.35;;;20.50;39.70;;;;;;5040523;28;20044;-60
2023/11/24 05:20:01;;;;;;;1.17;0.45;;;20.50;39.70;;;;;;5052263;28;20044;-57
2023/11/24 05:22:27;;;;;;;1.13;0.47;;;20.50;39.70;;;;;;5050759;28;20040;-58
2023/11/24 05:24:53;;;;;;;1.33;0.40;;;20.50;39.60;;;;;;5053481;28;20025;-59
2023/11/24 05:27:19;;;;;;;1.15;0.40;;;20.50;39.50;;;;;;5053837;28;20041;-59
2023/11/24 05:29:44;;;;;;;1.05;0.40;;;20.50;39.50;;;;;;5052606;28;20104;-60
2023/11/24 05:32:11;;;;;;;1.85;0.50;;;20.50;39.40;;;;;;5051239;28;20033;-62
2023/11/24 05:34:37;;;;;;;1.95;0.60;;;20.50;39.40;;;;;;5051048;28;20108;-59
2023/11/24 05:37:06;;;;;;;1.50;0.57;;;20.50;39.30;;;;;;5042308;28;20053;-59
2023/11/24 05:39:32;;;;;;;0.85;0.40;;;20.40;39.20;;;;;;5045007;28;20052;-61
2023/11/24 05:41:58;;;;;;;1.88;0.40;;;20.50;39.30;;;;;;5041155;28;20052;-60
2023/11/24 05:44:24;;;;;;;0.85;0.40;;;20.50;39.20;;;;;;5042877;28;20115;-60
2023/11/24 05:46:50;;;;;;;1.17;0.40;;;20.50;39.20;;;;;;5041482;28;20029;-60
2023/11/24 05:49:16;;;;;;;1.38;0.40;;;20.40;39.10;;;;;;5052177;28;20052;-58
2023/11/24 05:51:43;;;;;;;2.55;0.68;;;20.50;39.10;;;;;;5051909;28;20429;-57
2023/11/24 05:54:10;;;;;;;1.48;0.60;;;20.50;39.10;;;;;;5042408;28;20033;-57
2023/11/24 05:56:42;;;;;;;1.83;0.60;;;20.50;39.10;;;;;;5042142;28;20086;-57
2023/11/24 05:59:08;;;;;;;2.03;0.40;;;20.50;39.20;;;;;;5053399;28;20372;-59
2023/11/24 06:01:35;;;;;;;2.20;0.65;;;20.40;39.20;;;;;;5040217;28;20041;-59
2023/11/24 06:04:02;;;;;;;1.20;0.45;;;20.50;39.30;;;;;;5051836;28;20036;-57
2023/11/24 06:06:28;;;;;;;1.08;0.45;;;20.40;39.30;;;;;;5041423;28;20029;-59
2023/11/24 06:08:54;;;;;;;1.17;0.47;;;20.40;39.30;;;;;;5052310;28;20052;-57
2023/11/24 06:11:20;;;;;;;1.48;0.45;;;20.40;39.30;;;;;;5051909;28;20396;-62
2023/11/24 06:13:48;;;;;;;1.13;0.45;;;20.40;39.30;;;;;;5051948;28;20025;-61
2023/11/24 06:16:14;;;;;;;1.77;0.55;;;20.40;39.40;;;;;;5040717;28;20029;-57
2023/11/24 06:18:40;;;;;;;1.13;0.30;;;20.40;39.40;;;;;;5042754;28;20041;-59
2023/11/24 06:21:11;;;;;;;2.10;0.80;;;20.40;39.40;;;;;;5042230;28;20029;-61
2023/11/24 06:23:38;;;;;;;0.70;0.38;;;20.40;39.40;;;;;;5050197;28;20041;-57
2023/11/24 06:26:06;;;;;;;0.63;0.20;;;20.40;39.50;;;;;;5049899;28;20391;-58
2023/11/24 06:28:33;;;;;;;1.50;0.63;;;20.40;39.50;;;;;;5051114;28;20032;-55
2023/11/24 06:31:00;;;;;;;0.55;0.32;;;20.40;39.50;;;;;;5040715;28;20116;-58
2023/11/24 06:33:26;;;;;;;1.80;0.50;;;20.40;39.50;;;;;;5041672;28;20356;-62
2023/11/24 06:35:53;;;;;;;1.23;0.50;;;20.40;39.50;;;;;;5050758;28;20452;-63
2023/11/24 06:38:19;;;;;;;0.80;0.35;;;20.40;39.50;;;;;;5040771;28;20372;-57
2023/11/24 06:40:45;;;;;;;1.13;0.38;;;20.40;39.50;;;;;;5050396;28;20040;-59
2023/11/24 06:43:11;;;;;;;0.75;0.40;;;20.40;39.50;;;;;;5050351;28;20033;-60
2023/11/24 06:45:36;;;;;;;0.68;0.30;;;20.40;39.40;;;;;;5050880;28;20052;-63
2023/11/24 06:48:02;;;;;;;0.88;0.40;;;20.40;39.40;;;;;;5050629;28;20059;-62
2023/11/24 06:50:28;;;;;;;1.15;0.35;;;20.30;39.40;;;;;;5049655;28;20063;-57
2023/11/24 06:52:55;;;;;;;1.02;0.40;;;20.30;39.40;;;;;;5050105;28;20372;-61
2023/11/24 06:55:21;;;;;;;1.10;0.60;;;20.30;39.40;;;;;;5039492;28;20029;-59
2023/11/24 06:57:47;;;;;;;1.98;0.70;;;20.40;39.50;;;;;;5051046;28;20590;-56
2023/11/24 07:00:17;;;;;;;1.08;0.38;;;20.30;39.50;;;;;;5050726;28;20116;-59
2023/11/24 07:02:46;;;;;;;0.68;0.35;;;20.30;39.50;;;;;;5040637;28;20428;-57
2023/11/24 07:05:13;;;;;;;2.15;0.60;;;20.30;39.60;;;;;;5047241;28;20035;-57
2023/11/24 07:07:38;;;;;;;1.08;0.45;;;20.30;39.70;;;;;;5007275;28;20098;-56
2023/11/24 07:10:07;;;;;;;1.30;0.43;;;20.30;39.70;;;;;;5049297;28;20033;-57
2023/11/24 07:12:33;;;;;;;1.10;0.40;;;20.30;39.70;;;;;;5039858;28;20044;-61
2023/11/24 07:15:03;;;;;;;0.88;0.32;;;20.30;39.70;;;;;;5039831;28;20043;-59
2023/11/24 07:17:31;;;;;;;2.08;0.60;;;20.30;39.60;;;;;;5033549;28;20025;-56
2023/11/24 07:19:57;;;;;;;0.98;0.43;;;20.30;39.60;;;;;;5049902;28;20045;-57
2023/11/24 07:22:24;;;;;;;1.10;0.30;;;20.30;39.60;;;;;;5038235;28;20060;-59
2023/11/24 07:24:55;;;;;;;1.85;0.40;;;20.30;39.60;;;;;;5051010;28;20028;-58
2023/11/24 07:27:21;;;;;;;1.10;0.50;;;20.30;39.70;;;;;;5048797;28;20028;-59
2023/11/24 07:29:46;;;;;;;1.13;0.40;;;20.30;39.80;;;;;;5048464;28;21451;-56
2023/11/24 07:32:14;;;;;;;1.27;0.55;;;20.30;39.80;;;;;;5049338;28;20039;-60
2023/11/24 07:34:40;;;;;;;1.60;0.40;;;20.30;39.80;;;;;;5048558;28;20444;-59
2023/11/24 07:37:07;;;;;;;0.57;0.38;;;20.30;39.80;;;;;;5044718;28;20358;-60
2023/11/24 07:39:36;;;;;;;1.20;0.40;;;20.30;39.80;;;;;;5026324;28;20041;-57
2023/11/24 07:42:02;;;;;;;2.20;0.60;;;20.30;39.80;;;;;;5030915;28;20041;-58
2023/11/24 07:44:31;;;;;;;0.73;0.52;;;20.30;39.80;;;;;;5029296;28;20028;-57
2023/11/24 07:46:57;;;;;;;0.98;0.30;;;20.30;39.80;;;;;;5027614;28;20041;-57
2023/11/24 07:49:24;;;;;;;2.65;0.50;;;20.30;39.90;;;;;;5028636;28;20057;-54
2023/11/24 07:51:50;;;;;;;2.70;0.50;;;20.30;39.90;;;;;;5030767;28;20040;-60
2023/11/24 07:54:16;;;;;;;1.25;0.43;;;20.30;40.00;;;;;;5011493;28;20026;-59
2023/11/24 07:56:42;;;;;;;0.90;0.40;;;20.30;40.00;;;;;;5013644;28;20048;-57
2023/11/24 07:59:11;;;;;;;2.58;0.52;;;20.30;40.10;;;;;;5012088;28;20472;-59
2023/11/24 08:01:38;;;;;;;2.17;0.50;;;20.30;40.20;;;;;;5010405;28;20042;-61
2023/11/24 08:04:04;;;;;;;1.67;0.60;;;20.30;40.30;;;;;;5031633;28;20034;-57
2023/11/24 08:06:30;;;;;;;0.95;0.50;;;20.30;40.20;;;;;;5030285;28;20441;-57
2023/11/24 08:08:56;;;;;;;1.35;0.68;;;20.30;40.20;;;;;;5027791;28;20052;-60
2023/11/24 08:11:25;;;;;;;1.90;0.43;;;20.30;40.20;;;;;;5028043;28;20025;-58
2023/11/24 08:13:51;;;;;;;1.65;0.50;;;20.40;40.20;;;;;;5031385;28;20036;-58
2023/11/24 08:16:17;;;;;;;1.40;0.50;;;20.40;40.20;;;;;;5031339;28;20041;-57
2023/11/24 08:18:43;;;;;;;1.88;0.50;;;20.40;40.20;;;;;;5012300;28;20159;-57
2023/11/24 08:21:09;;;;;;;2.22;0.70;;;20.50;40.10;;;;;;5031431;28;20112;-60
2023/11/24 08:23:36;;;;;;;1.80;0.50;;;20.50;40.00;;;;;;4997895;28;20034;-56
2023/11/24 08:26:05;;;;;;;2.20;0.50;;;20.50;39.90;;;;;;4999817;28;20030;-61
2023/11/24 08:28:31;;;;;;;0.73;0.30;;;20.50;39.90;;;;;;5035119;28;20091;-59
2023/11/24 08:30:57;;;;;;;1.55;0.55;;;20.50;39.80;;;;;;5037518;28;20092;-59
2023/11/24 08:33:23;;;;;;;1.70;0.40;;;20.60;39.80;;;;;;5039496;28;20037;-59
2023/11/24 08:35:48;;;;;;;2.85;0.60;;;20.60;39.70;;;;;;5020562;28;20379;-58
2023/11/24 08:38:14;;;;;;;1.50;0.57;;;20.60;39.70;;;;;;5018950;28;20049;-57
2023/11/24 08:40:41;;;;;;;2.25;0.70;;;20.60;39.60;;;;;;5008310;28;20033;-61
2023/11/24 08:43:06;;;;;;;1.40;0.60;;;20.60;39.60;;;;;;5037890;28;20021;-59
2023/11/24 08:45:35;;;;;;;1.20;0.47;;;20.70;39.70;;;;;;5037797;28;20036;-57
2023/11/24 08:48:01;;;;;;;1.23;0.50;;;20.70;39.50;;;;;;5037994;28;20029;-59
2023/11/24 08:50:28;;;;;;;1.52;0.50;;;20.70;39.50;;;;;;5035055;28;20045;-59
2023/11/24 08:52:54;;;;;;;1.33;0.45;;;20.70;39.50;;;;;;5017365;28;20428;-59
2023/11/24 08:55:20;;;;;;;3.20;0.40;;;20.70;39.40;;;;;;5038772;28;20160;-59
2023/11/24 08:57:46;;;;;;;0.93;0.30;;;20.80;39.40;;;;;;5038686;28;20067;-59
2023/11/24 09:00:14;;;;;;;1.98;0.52;;;20.80;39.30;;;;;;5037369;28;20048;-56
2023/11/24 09:02:41;;;;;;;1.17;0.40;;;20.80;39.30;;;;;;5017163;28;20040;-59
2023/11/24 09:05:10;;;;;;;1.42;0.50;;;20.80;39.20;;;;;;5036950;28;20113;-60
2023/11/24 09:07:36;;;;;;;3.20;0.68;;;20.80;39.20;;;;;;5033682;28;20459;-59
2023/11/24 09:10:03;;;;;;;1.67;0.63;;;20.80;39.20;;;;;;5018561;28;20460;-59
2023/11/24 09:12:29;;;;;;;1.30;0.43;;;20.90;39.20;;;;;;5019689;28;20025;-61
2023/11/24 09:14:55;;;;;;;1.70;0.60;;;20.90;39.10;;;;;;5036750;28;20033;-60
2023/11/24 09:17:21;;;;;;;1.05;0.43;;;20.80;39.00;;;;;;5022458;28;20117;-59
2023/11/24 09:19:47;;;;;;;1.08;0.40;;;20.90;39.00;;;;;;5037586;28;20125;-55
2023/11/24 09:22:19;;;;;;;0.77;0.20;;;20.90;38.90;;;;;;5038217;28;20464;-57
2023/11/24 09:24:48;;;;;;;0.82;0.40;;;20.90;39.00;;;;;;5038024;28;20112;-64
2023/11/24 09:27:14;;;;;;;1.00;0.50;;;20.90;39.00;;;;;;5037568;28;20083;-58
2023/11/24 09:29:39;;;;;;;0.93;0.30;;;21.00;39.00;;;;;;5037888;28;20393;-59
2023/11/24 09:32:06;;;;;;;1.70;0.50;;;20.90;38.90;;;;;;5038395;28;20302;-59
2023/11/24 09:34:32;;;;;;;0.75;0.47;;;21.00;38.80;;;;;;5037837;28;20452;-58
2023/11/24 09:36:58;;;;;;;1.88;0.50;;;21.00;38.80;;;;;;5037871;28;20037;-57
2023/11/24 09:39:26;;;;;;;1.88;0.32;;;20.90;38.70;;;;;;5036885;28;20052;-56
2023/11/24 09:41:53;;;;;;;1.17;0.50;;;21.00;38.70;;;;;;5036120;28;20108;-58
2023/11/24 09:44:20;;;;;;;1.48;0.55;;;21.00;38.60;;;;;;5036113;28;20026;-57
2023/11/24 09:46:47;;;;;;;1.02;0.40;;;21.00;38.60;;;;;;5037968;28;20461;-59
2023/11/24 09:49:17;;;;;;;1.27;0.57;;;21.00;38.60;;;;;;5018369;28;20404;-57
2023/11/24 09:51:43;;;;;;;1.40;0.57;;;21.10;38.60;;;;;;5015721;28;20483;-60
2023/11/24 09:54:11;;;;;;;0.73;0.20;;;21.00;38.50;;;;;;5037117;28;20029;-61
2023/11/24 09:56:43;;;;;;;1.27;0.60;;;21.00;38.60;;;;;;5037098;28;20041;-60
2023/11/24 09:59:10;;;;;;;0.93;0.50;;;21.00;38.50;;;;;;5037104;28;20514;-62
2023/11/24 10:01:43;;;;;;;0.95;0.35;;;21.00;38.50;;;;;;5031858;28;20022;-61
2023/11/24 10:04:10;;;;;;;1.30;0.50;;;21.00;38.60;;;;;;5036709;28;20026;-59
2023/11/24 10:06:42;;;;;;;1.05;0.32;;;21.00;38.60;;;;;;5019359;28;20062;-61
2023/11/24 10:09:10;;;;;;;0.60;0.30;;;21.00;38.60;;;;;;5019914;28;20354;-58
2023/11/24 10:11:38;;;;;;;1.23;0.60;;;21.00;38.60;;;;;;5037051;28;20029;-60
2023/11/24 10:14:07;;;;;;;0.80;0.28;;;21.00;38.60;;;;;;5034520;28;20025;-58
2023/11/24 10:16:33;;;;;;;1.52;0.38;;;21.00;38.60;;;;;;5034338;28;20542;-59
2023/11/24 10:19:00;;;;;;;1.00;0.40;;;21.00;38.60;;;;;;5022319;28;20045;-60
2023/11/24 10:21:30;;;;;;;1.63;0.50;;;21.00;38.60;;;;;;5033270;28;20087;-58
2023/11/24 10:24:00;;;;;;;1.08;0.50;;;21.00;38.70;;;;;;5036575;28;20112;-58
2023/11/24 10:26:26;;;;;;;1.02;0.40;;;21.00;38.70;;;;;;5036974;28;20026;-59
2023/11/24 10:28:52;;;;;;;1.65;0.40;;;21.00;38.80;;;;;;5035431;28;20168;-56
2023/11/24 10:31:18;;;;;;;1.05;0.40;;;21.00;38.80;;;;;;5019188;28;20037;-59
2023/11/24 10:33:44;;;;;;;0.52;0.20;;;21.00;38.70;;;;;;5035940;28;20025;-57
2023/11/24 10:36:10;;;;;;;1.27;0.40;;;21.00;38.70;;;;;;5036534;28;20108;-54
2023/11/24 10:38:40;;;;;;;1.48;0.60;;;21.00;38.60;;;;;;5036239;28;20049;-58
2023/11/24 10:41:19;;;;;;;1.67;0.40;;;21.00;38.50;;;;;;5036718;28;20356;-59
2023/11/24 10:43:49;;;;;;;2.05;0.50;;;21.00;38.50;;;;;;5035840;28;20083;-58
2023/11/24 10:46:18;;;;;;;1.90;0.57;;;21.00;38.40;;;;;;5035988;28;20040;-61
2023/11/24 10:48:51;;;;;;;1.45;0.52;;;21.00;38.40;;;;;;5036115;28;20092;-60
2023/11/24 10:51:45;;;;;;;1.23;0.50;;;21.00;38.40;;;;;;5036454;28;20025;-62
2023/11/24 10:54:38;;;;;;;1.73;0.50;;;21.00;38.20;;;;;;5001062;28;20040;-59
2023/11/24 10:57:06;;;;;;;2.08;0.50;;;21.00;38.20;;;;;;5035956;28;20036;-61
2023/11/24 10:59:35;;;;;;;1.23;0.40;;;21.00;38.20;;;;;;5035668;28;20044;-59
2023/11/24 11:02:06;;;;;;;1.00;0.40;;;21.00;38.20;;;;;;5036488;28;20096;-59
2023/11/24 11:04:37;;;;;;;1.77;0.57;;;21.00;38.10;;;;;;5019047;28;20326;-57
2023/11/24 11:07:14;;;;;;;1.05;0.40;;;21.00;38.10;;;;;;5033548;28;20033;-59
2023/11/24 11:09:58;;;;;;;1.10;0.30;;;21.00;38.10;;;;;;5035296;28;20033;-57
2023/11/24 11:12:39;;;;;;;2.17;0.55;;;21.00;38.10;;;;;;5035765;28;20511;-58
2023/11/24 11:15:09;;;;;;;2.30;0.57;;;21.00;38.10;;;;;;5017968;28;20029;-59
2023/11/24 11:17:37;;;;;;;1.85;0.30;;;21.00;38.10;;;;;;5032093;28;20555;-58
2023/11/24 11:20:19;;;;;;;1.90;0.57;;;21.00;38.20;;;;;;5029763;28;20142;-60
2023/11/24 11:22:47;;;;;;;2.13;0.80;;;21.00;38.20;;;;;;5035781;28;20045;-63
2023/11/24 11:25:13;;;;;;;1.17;0.47;;;21.00;38.30;;;;;;5035900;28;20116;-61
2023/11/24 11:27:40;;;;;;;1.77;0.60;;;21.00;38.30;;;;;;5017733;28;20030;-58
2023/11/24 11:30:26;;;;;;;0.90;0.50;;;21.00;38.40;;;;;;5018249;28;20453;-59
2023/11/24 11:33:02;;;;;;;3.72;0.73;;;21.00;38.40;;;;;;5035356;28;20361;-59
2023/11/24 11:35:29;;;;;;;1.63;0.70;;;21.00;38.50;;;;;;5033697;28;20032;-60
2023/11/24 11:38:00;;;;;;;2.67;0.60;;;21.10;38.60;;;;;;5033438;28;20135;-63
2023/11/24 11:40:26;;;;;;;2.08;0.60;;;21.10;38.60;;;;;;5033296;28;20047;-61
2023/11/24 11:43:05;;;;;;;2.67;0.70;;;21.00;38.50;;;;;;5014800;28;20384;-60
2023/11/24 11:45:33;;;;;;;1.83;0.77;;;21.10;38.60;;;;;;5032233;28;20022;-61
2023/11/24 11:48:02;;;;;;;1.58;0.50;;;21.10;38.60;;;;;;5034758;28;20036;-58
2023/11/24 11:50:29;;;;;;;3.35;0.50;;;21.10;38.60;;;;;;5013256;28;20044;-56
2023/11/24 11:53:00;;;;;;;2.35;0.57;;;21.10;38.50;;;;;;5033376;28;20059;-55
2023/11/24 11:55:28;;;;;;;2.88;0.70;;;21.00;38.40;;;;;;5016662;28;20037;-61
2023/11/24 11:58:04;;;;;;;1.98;0.70;;;21.10;38.60;;;;;;5016356;28;20091;-60
2023/11/24 12:00:30;;;;;;;1.90;0.60;;;21.10;38.60;;;;;;5030121;28;20111;-61
2023/11/24 12:02:57;;;;;;;0.82;0.50;;;21.10;38.50;;;;;;5016674;28;21140;-58
2023/11/24 12:05:24;;;;;;;2.13;0.90;;;21.10;38.40;;;;;;5028606;28;20022;-62
2023/11/24 12:07:54;;;;;;;2.92;1.50;;;21.10;38.20;;;;;;5014746;28;20059;-54
2023/11/24 12:10:29;;;;;;;3.35;1.63;;;21.10;38.00;;;;;;5033607;28;20436;-55
2023/11/24 12:12:55;;;;;;;4.18;1.60;;;21.10;38.40;;;;;;5034078;28;20029;-60
2023/11/24 12:15:23;;;;;;;3.53;1.45;;;21.10;37.60;;;;;;5034213;28;20025;-54
2023/11/24 12:17:53;;;;;;;4.32;1.73;;;21.10;37.40;;;;;;5017197;28;20037;-58
2023/11/24 12:20:20;;;;;;;1.73;0.90;;;21.10;37.20;;;;;;5016923;28;20064;-59
2023/11/24 12:22:46;;;;;;;2.00;1.10;;;21.00;37.10;;;;;;5034251;28;20119;-61
2023/11/24 12:25:15;;;;;;;2.42;1.05;;;21.10;37.00;;;;;;5035421;28;20383;-56
2023/11/24 12:27:44;;;;;;;2.92;1.20;;;21.00;36.80;;;;;;5034993;28;20025;-57
2023/11/24 12:30:14;;;;;;;2.28;1.17;;;21.00;36.70;;;;;;5018149;28;20039;-59
2023/11/24 12:32:41;;;;;;;1.75;0.77;;;21.00;36.60;;;;;;5035176;28;20043;-59
2023/11/24 12:35:08;;;;;;;1.45;0.80;;;21.00;36.50;;;;;;5026860;28;20362;-56
2023/11/24 12:37:37;;;;;;;1.75;0.77;;;21.00;36.50;;;;;;5053383;28;20076;-58
2023/11/24 12:40:03;;;;;;;1.88;0.88;;;21.00;36.50;;;;;;5074643;28;20119;-60
2023/11/24 12:42:30;;;;;;;2.80;0.80;;;21.10;36.50;;;;;;5055031;28;20041;-53
2023/11/24 12:44:59;;;;;;;2.22;0.60;;;21.10;36.40;;;;;;5074629;28;20310;-53
2023/11/24 12:47:25;;;;;;;1.52;0.65;;;21.00;36.30;;;;;;5056633;28;20091;-56
2023/11/24 12:49:59;;;;;;;2.28;0.90;;;21.10;36.30;;;;;;5071497;28;20028;-57